Pagrindinis puslapis
METAR-TAF:

METAR-TAF

Oro uostai :

Jezdas, Iranas

platuma: 31-54N, ilguma: 054-24E, Aukštis: 1238 m

Dabartinis oras

Ataskaita buvo paskelbta 36 minutes, ne 01:00 UTC
Vėjas 4 kt iš Vakarų
Temperatūra 28°C
Drėgmė 15%
Slėgis 1012 hPa
Matomumas 10 km arba daugiau
nėra debesų žemiau 1500 m ir nėra kamuolinių lietaus debesų

METAR: OIYY 170100Z 26004KT CAVOK 28/M01 Q1012

Laikas: 06:06 (01:36 UTC)

Prognozė

Ataskaita buvo paskelbta 2 valandos ir 31 minutes, ne 23:05 UTC
Prognozė galioja nuo 17 metu 00 UTC su 17 metu 09 UTC
Vėjas 8 kt iš Pietryčių
Matomumas: 7000 m

TAF: OIYY 162305Z 1700/1709 14008KT 7000 NSC

Orai ataskaitas ir orų prognozės (METAR, TAF).

turimą stotys yra geltonos ir raudonos taškus žemėlapyje.

Perkelti pele per norėdami pamatyti stoties vardą.

Tada spustelėkite, norėdami matyti oro stebėjimo ir prognozės.

Norėdami pakeisti žemėlapį: spustelėkite ant žalios mygtukų su juodo kryžiaus žemyn,; žalią mygtuką su brūkšneliu, jei norite nutolinti; arba žalių rodyklių gretimoms žemėlapius.


METAR-TAF: